sensor_id;sensor_type;location;lat;lon;timestamp;P1;durP1;ratioP1;P2;durP2;ratioP2
77520;SDS011;66633;47.628;19.158;2023-02-26T00:01:24;8.50;;;3.17;;
77520;SDS011;66633;47.628;19.158;2023-02-26T00:03:50;7.68;;;3.20;;
77520;SDS011;66633;47.628;19.158;2023-02-26T00:06:15;7.75;;;3.17;;
77520;SDS011;66633;47.628;19.158;2023-02-26T00:08:41;7.38;;;3.20;;
77520;SDS011;66633;47.628;19.158;2023-02-26T00:11:07;7.07;;;3.05;;
77520;SDS011;66633;47.628;19.158;2023-02-26T00:13:32;7.53;;;3.65;;
77520;SDS011;66633;47.628;19.158;2023-02-26T00:15:58;6.35;;;2.90;;
77520;SDS011;66633;47.628;19.158;2023-02-26T00:18:24;8.05;;;3.38;;
77520;SDS011;66633;47.628;19.158;2023-02-26T00:20:49;7.22;;;3.25;;
77520;SDS011;66633;47.628;19.158;2023-02-26T00:23:15;7.40;;;3.10;;
77520;SDS011;66633;47.628;19.158;2023-02-26T00:25:40;6.80;;;3.25;;
77520;SDS011;66633;47.628;19.158;2023-02-26T00:28:06;7.28;;;3.17;;
77520;SDS011;66633;47.628;19.158;2023-02-26T00:30:32;6.95;;;3.22;;
77520;SDS011;66633;47.628;19.158;2023-02-26T00:32:57;8.13;;;3.65;;
77520;SDS011;66633;47.628;19.158;2023-02-26T00:35:23;7.60;;;3.47;;
77520;SDS011;66633;47.628;19.158;2023-02-26T00:42:45;6.95;;;3.58;;
77520;SDS011;66633;47.628;19.158;2023-02-26T00:45:11;6.65;;;3.25;;
77520;SDS011;66633;47.628;19.158;2023-02-26T00:54:56;8.53;;;3.90;;
77520;SDS011;66633;47.628;19.158;2023-02-26T00:57:21;6.83;;;3.37;;
77520;SDS011;66633;47.628;19.158;2023-02-26T00:59:46;6.00;;;3.00;;
77520;SDS011;66633;47.628;19.158;2023-02-26T01:02:12;7.07;;;3.73;;
77520;SDS011;66633;47.628;19.158;2023-02-26T01:04:37;6.73;;;2.90;;
77520;SDS011;66633;47.628;19.158;2023-02-26T01:07:02;6.65;;;3.13;;
77520;SDS011;66633;47.628;19.158;2023-02-26T01:11:54;6.75;;;2.53;;
77520;SDS011;66633;47.628;19.158;2023-02-26T01:14:20;5.75;;;2.67;;
77520;SDS011;66633;47.628;19.158;2023-02-26T01:16:50;7.25;;;2.92;;
77520;SDS011;66633;47.628;19.158;2023-02-26T01:19:23;7.07;;;3.33;;
77520;SDS011;66633;47.628;19.158;2023-02-26T01:21:52;6.78;;;3.05;;
77520;SDS011;66633;47.628;19.158;2023-02-26T01:24:19;6.18;;;3.00;;
77520;SDS011;66633;47.628;19.158;2023-02-26T01:26:45;5.93;;;2.78;;
77520;SDS011;66633;47.628;19.158;2023-02-26T01:29:13;7.32;;;3.22;;
77520;SDS011;66633;47.628;19.158;2023-02-26T01:36:38;7.07;;;2.95;;
77520;SDS011;66633;47.628;19.158;2023-02-26T01:46:50;7.05;;;2.90;;
77520;SDS011;66633;47.628;19.158;2023-02-26T01:49:18;6.28;;;2.80;;
77520;SDS011;66633;47.628;19.158;2023-02-26T01:51:48;5.80;;;2.65;;
77520;SDS011;66633;47.628;19.158;2023-02-26T01:54:14;7.10;;;2.90;;
77520;SDS011;66633;47.628;19.158;2023-02-26T01:56:41;6.57;;;2.80;;
77520;SDS011;66633;47.628;19.158;2023-02-26T01:59:07;6.43;;;2.50;;
77520;SDS011;66633;47.628;19.158;2023-02-26T02:01:37;5.57;;;2.72;;
77520;SDS011;66633;47.628;19.158;2023-02-26T02:04:03;6.50;;;2.60;;
77520;SDS011;66633;47.628;19.158;2023-02-26T02:06:29;7.43;;;3.25;;
77520;SDS011;66633;47.628;19.158;2023-02-26T02:08:54;6.53;;;2.70;;
77520;SDS011;66633;47.628;19.158;2023-02-26T02:11:20;6.40;;;2.70;;
77520;SDS011;66633;47.628;19.158;2023-02-26T02:23:40;6.33;;;2.70;;
77520;SDS011;66633;47.628;19.158;2023-02-26T02:31:27;5.78;;;2.60;;
77520;SDS011;66633;47.628;19.158;2023-02-26T02:39:28;6.38;;;2.65;;
77520;SDS011;66633;47.628;19.158;2023-02-26T02:42:03;5.30;;;2.20;;
77520;SDS011;66633;47.628;19.158;2023-02-26T02:44:30;5.70;;;2.30;;
77520;SDS011;66633;47.628;19.158;2023-02-26T02:46:56;6.13;;;2.50;;
77520;SDS011;66633;47.628;19.158;2023-02-26T02:49:31;6.03;;;2.53;;
77520;SDS011;66633;47.628;19.158;2023-02-26T02:52:21;5.90;;;2.60;;
77520;SDS011;66633;47.628;19.158;2023-02-26T02:54:45;6.35;;;2.67;;
77520;SDS011;66633;47.628;19.158;2023-02-26T02:57:22;6.97;;;2.85;;
77520;SDS011;66633;47.628;19.158;2023-02-26T02:59:53;7.95;;;3.30;;
77520;SDS011;66633;47.628;19.158;2023-02-26T03:04:57;6.47;;;2.85;;
77520;SDS011;66633;47.628;19.158;2023-02-26T03:07:23;6.15;;;2.50;;
77520;SDS011;66633;47.628;19.158;2023-02-26T03:09:48;6.32;;;2.95;;
77520;SDS011;66633;47.628;19.158;2023-02-26T03:12:13;6.32;;;2.60;;
77520;SDS011;66633;47.628;19.158;2023-02-26T03:14:39;5.93;;;2.58;;
77520;SDS011;66633;47.628;19.158;2023-02-26T03:27:34;6.97;;;2.67;;
77520;SDS011;66633;47.628;19.158;2023-02-26T03:35:05;6.47;;;2.67;;
77520;SDS011;66633;47.628;19.158;2023-02-26T03:37:33;5.85;;;2.67;;
77520;SDS011;66633;47.628;19.158;2023-02-26T03:40:00;5.75;;;2.60;;
77520;SDS011;66633;47.628;19.158;2023-02-26T03:44:55;5.20;;;2.20;;
77520;SDS011;66633;47.628;19.158;2023-02-26T03:47:22;5.97;;;3.22;;
77520;SDS011;66633;47.628;19.158;2023-02-26T03:49:52;6.32;;;2.80;;
77520;SDS011;66633;47.628;19.158;2023-02-26T03:52:22;8.70;;;2.70;;
77520;SDS011;66633;47.628;19.158;2023-02-26T03:54:50;5.72;;;2.83;;
77520;SDS011;66633;47.628;19.158;2023-02-26T03:59:44;7.93;;;2.80;;
77520;SDS011;66633;47.628;19.158;2023-02-26T04:02:11;7.00;;;2.80;;
77520;SDS011;66633;47.628;19.158;2023-02-26T04:04:45;5.55;;;2.40;;
77520;SDS011;66633;47.628;19.158;2023-02-26T04:07:12;7.35;;;2.78;;
77520;SDS011;66633;47.628;19.158;2023-02-26T04:09:45;6.43;;;2.90;;
77520;SDS011;66633;47.628;19.158;2023-02-26T04:12:10;6.18;;;2.70;;
77520;SDS011;66633;47.628;19.158;2023-02-26T04:14:36;6.83;;;3.37;;
77520;SDS011;66633;47.628;19.158;2023-02-26T04:17:01;6.95;;;3.17;;
77520;SDS011;66633;47.628;19.158;2023-02-26T04:19:26;6.20;;;2.60;;
77520;SDS011;66633;47.628;19.158;2023-02-26T04:21:51;6.10;;;2.97;;
77520;SDS011;66633;47.628;19.158;2023-02-26T04:24:17;6.63;;;2.70;;
77520;SDS011;66633;47.628;19.158;2023-02-26T04:26:42;6.90;;;3.27;;
77520;SDS011;66633;47.628;19.158;2023-02-26T04:29:07;6.80;;;3.40;;
77520;SDS011;66633;47.628;19.158;2023-02-26T04:31:32;6.67;;;2.60;;
77520;SDS011;66633;47.628;19.158;2023-02-26T04:33:58;6.18;;;2.60;;
77520;SDS011;66633;47.628;19.158;2023-02-26T04:36:23;6.70;;;2.67;;
77520;SDS011;66633;47.628;19.158;2023-02-26T04:38:48;6.27;;;2.50;;
77520;SDS011;66633;47.628;19.158;2023-02-26T04:41:13;6.13;;;2.50;;
77520;SDS011;66633;47.628;19.158;2023-02-26T04:43:39;6.50;;;2.60;;
77520;SDS011;66633;47.628;19.158;2023-02-26T04:46:04;6.00;;;2.43;;
77520;SDS011;66633;47.628;19.158;2023-02-26T04:48:29;6.85;;;3.05;;
77520;SDS011;66633;47.628;19.158;2023-02-26T04:50:55;6.77;;;3.10;;
77520;SDS011;66633;47.628;19.158;2023-02-26T04:53:20;6.43;;;2.80;;
77520;SDS011;66633;47.628;19.158;2023-02-26T04:55:46;6.97;;;2.77;;
77520;SDS011;66633;47.628;19.158;2023-02-26T04:58:11;6.38;;;2.60;;
77520;SDS011;66633;47.628;19.158;2023-02-26T05:00:37;5.57;;;2.63;;
77520;SDS011;66633;47.628;19.158;2023-02-26T05:03:02;6.20;;;3.07;;
77520;SDS011;66633;47.628;19.158;2023-02-26T05:05:27;7.22;;;3.17;;
77520;SDS011;66633;47.628;19.158;2023-02-26T05:07:53;6.37;;;2.87;;
77520;SDS011;66633;47.628;19.158;2023-02-26T05:10:20;5.80;;;2.30;;
77520;SDS011;66633;47.628;19.158;2023-02-26T05:12:45;6.27;;;2.97;;
77520;SDS011;66633;47.628;19.158;2023-02-26T05:15:11;7.60;;;4.10;;
77520;SDS011;66633;47.628;19.158;2023-02-26T05:17:36;5.78;;;2.90;;
77520;SDS011;66633;47.628;19.158;2023-02-26T05:20:01;6.13;;;2.43;;
77520;SDS011;66633;47.628;19.158;2023-02-26T05:22:27;6.60;;;2.90;;
77520;SDS011;66633;47.628;19.158;2023-02-26T05:24:52;5.68;;;2.50;;
77520;SDS011;66633;47.628;19.158;2023-02-26T05:27:17;6.22;;;2.90;;
77520;SDS011;66633;47.628;19.158;2023-02-26T05:29:43;6.85;;;3.30;;
77520;SDS011;66633;47.628;19.158;2023-02-26T05:32:09;7.13;;;2.72;;
77520;SDS011;66633;47.628;19.158;2023-02-26T05:34:34;6.90;;;2.60;;
77520;SDS011;66633;47.628;19.158;2023-02-26T05:36:59;6.40;;;3.20;;
77520;SDS011;66633;47.628;19.158;2023-02-26T05:39:25;9.00;;;3.47;;
77520;SDS011;66633;47.628;19.158;2023-02-26T05:41:50;8.13;;;2.83;;
77520;SDS011;66633;47.628;19.158;2023-02-26T05:44:17;6.20;;;2.88;;
77520;SDS011;66633;47.628;19.158;2023-02-26T05:46:42;8.73;;;3.60;;
77520;SDS011;66633;47.628;19.158;2023-02-26T05:49:07;7.13;;;3.57;;
77520;SDS011;66633;47.628;19.158;2023-02-26T05:51:33;6.38;;;3.33;;
77520;SDS011;66633;47.628;19.158;2023-02-26T05:53:58;5.40;;;2.45;;
77520;SDS011;66633;47.628;19.158;2023-02-26T05:56:24;7.68;;;3.30;;
77520;SDS011;66633;47.628;19.158;2023-02-26T05:58:49;7.10;;;2.80;;
77520;SDS011;66633;47.628;19.158;2023-02-26T06:01:15;8.90;;;3.28;;
77520;SDS011;66633;47.628;19.158;2023-02-26T06:03:40;7.60;;;3.50;;
77520;SDS011;66633;47.628;19.158;2023-02-26T06:06:08;8.30;;;3.63;;
77520;SDS011;66633;47.628;19.158;2023-02-26T06:08:34;9.55;;;4.40;;
77520;SDS011;66633;47.628;19.158;2023-02-26T06:10:59;9.45;;;4.00;;
77520;SDS011;66633;47.628;19.158;2023-02-26T06:13:24;7.30;;;3.30;;
77520;SDS011;66633;47.628;19.158;2023-02-26T06:15:50;6.60;;;3.13;;
77520;SDS011;66633;47.628;19.158;2023-02-26T06:18:16;6.93;;;3.42;;
77520;SDS011;66633;47.628;19.158;2023-02-26T06:20:41;6.78;;;3.00;;
77520;SDS011;66633;47.628;19.158;2023-02-26T06:23:07;6.83;;;3.20;;
77520;SDS011;66633;47.628;19.158;2023-02-26T06:25:32;8.50;;;3.33;;
77520;SDS011;66633;47.628;19.158;2023-02-26T06:27:57;7.93;;;3.20;;
77520;SDS011;66633;47.628;19.158;2023-02-26T06:30:22;8.93;;;3.70;;
77520;SDS011;66633;47.628;19.158;2023-02-26T06:32:48;7.10;;;3.22;;
77520;SDS011;66633;47.628;19.158;2023-02-26T06:35:13;7.57;;;3.72;;
77520;SDS011;66633;47.628;19.158;2023-02-26T06:37:38;7.23;;;3.63;;
77520;SDS011;66633;47.628;19.158;2023-02-26T06:40:04;5.97;;;2.72;;
77520;SDS011;66633;47.628;19.158;2023-02-26T06:42:29;7.50;;;3.22;;
77520;SDS011;66633;47.628;19.158;2023-02-26T06:44:55;5.57;;;2.47;;
77520;SDS011;66633;47.628;19.158;2023-02-26T06:47:21;4.88;;;2.00;;
77520;SDS011;66633;47.628;19.158;2023-02-26T06:49:46;7.45;;;3.33;;
77520;SDS011;66633;47.628;19.158;2023-02-26T06:52:12;6.53;;;3.15;;
77520;SDS011;66633;47.628;19.158;2023-02-26T06:54:38;7.33;;;3.33;;
77520;SDS011;66633;47.628;19.158;2023-02-26T06:57:03;7.77;;;3.90;;
77520;SDS011;66633;47.628;19.158;2023-02-26T06:59:28;6.67;;;3.00;;
77520;SDS011;66633;47.628;19.158;2023-02-26T07:01:53;7.28;;;3.72;;
77520;SDS011;66633;47.628;19.158;2023-02-26T07:04:19;7.88;;;4.07;;
77520;SDS011;66633;47.628;19.158;2023-02-26T07:06:44;8.17;;;3.87;;
77520;SDS011;66633;47.628;19.158;2023-02-26T07:09:09;6.60;;;3.17;;
77520;SDS011;66633;47.628;19.158;2023-02-26T07:11:34;7.57;;;3.03;;
77520;SDS011;66633;47.628;19.158;2023-02-26T07:14:00;6.93;;;3.07;;
77520;SDS011;66633;47.628;19.158;2023-02-26T07:16:25;6.50;;;3.10;;
77520;SDS011;66633;47.628;19.158;2023-02-26T07:18:50;7.20;;;3.43;;
77520;SDS011;66633;47.628;19.158;2023-02-26T07:21:16;8.00;;;3.00;;
77520;SDS011;66633;47.628;19.158;2023-02-26T07:23:41;6.18;;;2.67;;
77520;SDS011;66633;47.628;19.158;2023-02-26T07:26:06;6.83;;;2.93;;
77520;SDS011;66633;47.628;19.158;2023-02-26T07:28:32;6.53;;;3.00;;
77520;SDS011;66633;47.628;19.158;2023-02-26T07:30:58;6.65;;;3.03;;
77520;SDS011;66633;47.628;19.158;2023-02-26T07:33:23;6.40;;;2.70;;
77520;SDS011;66633;47.628;19.158;2023-02-26T07:35:50;9.80;;;4.70;;
77520;SDS011;66633;47.628;19.158;2023-02-26T07:38:15;18.45;;;7.95;;
77520;SDS011;66633;47.628;19.158;2023-02-26T07:40:41;11.60;;;5.27;;
77520;SDS011;66633;47.628;19.158;2023-02-26T07:43:06;9.57;;;4.45;;
77520;SDS011;66633;47.628;19.158;2023-02-26T07:45:31;9.23;;;4.40;;
77520;SDS011;66633;47.628;19.158;2023-02-26T07:47:56;23.97;;;9.07;;
77520;SDS011;66633;47.628;19.158;2023-02-26T07:50:22;38.70;;;10.23;;
77520;SDS011;66633;47.628;19.158;2023-02-26T07:52:50;21.73;;;7.25;;
77520;SDS011;66633;47.628;19.158;2023-02-26T07:55:15;14.70;;;6.65;;
77520;SDS011;66633;47.628;19.158;2023-02-26T07:57:40;29.95;;;10.52;;
77520;SDS011;66633;47.628;19.158;2023-02-26T08:00:06;23.75;;;7.70;;
77520;SDS011;66633;47.628;19.158;2023-02-26T08:02:31;17.33;;;7.18;;
77520;SDS011;66633;47.628;19.158;2023-02-26T08:04:57;8.70;;;3.87;;
77520;SDS011;66633;47.628;19.158;2023-02-26T08:07:22;7.95;;;3.72;;
77520;SDS011;66633;47.628;19.158;2023-02-26T08:09:47;9.13;;;3.92;;
77520;SDS011;66633;47.628;19.158;2023-02-26T08:12:13;9.70;;;4.43;;
77520;SDS011;66633;47.628;19.158;2023-02-26T08:14:38;10.87;;;4.97;;
77520;SDS011;66633;47.628;19.158;2023-02-26T08:17:06;6.50;;;3.40;;
77520;SDS011;66633;47.628;19.158;2023-02-26T08:19:31;7.97;;;4.35;;
77520;SDS011;66633;47.628;19.158;2023-02-26T08:21:56;8.32;;;3.60;;
77520;SDS011;66633;47.628;19.158;2023-02-26T08:24:22;8.35;;;3.95;;
77520;SDS011;66633;47.628;19.158;2023-02-26T08:26:47;9.82;;;5.18;;
77520;SDS011;66633;47.628;19.158;2023-02-26T08:29:13;9.75;;;5.53;;
77520;SDS011;66633;47.628;19.158;2023-02-26T08:31:38;9.30;;;4.00;;
77520;SDS011;66633;47.628;19.158;2023-02-26T08:34:04;9.80;;;4.65;;
77520;SDS011;66633;47.628;19.158;2023-02-26T08:36:30;9.77;;;4.47;;
77520;SDS011;66633;47.628;19.158;2023-02-26T08:38:55;9.82;;;4.35;;
77520;SDS011;66633;47.628;19.158;2023-02-26T08:41:21;9.82;;;5.35;;
77520;SDS011;66633;47.628;19.158;2023-02-26T08:43:46;15.32;;;8.77;;
77520;SDS011;66633;47.628;19.158;2023-02-26T08:46:12;9.60;;;5.45;;
77520;SDS011;66633;47.628;19.158;2023-02-26T08:48:37;8.23;;;4.20;;
77520;SDS011;66633;47.628;19.158;2023-02-26T08:51:03;10.77;;;5.70;;
77520;SDS011;66633;47.628;19.158;2023-02-26T08:53:28;8.20;;;4.47;;
77520;SDS011;66633;47.628;19.158;2023-02-26T08:55:53;8.93;;;3.83;;
77520;SDS011;66633;47.628;19.158;2023-02-26T08:58:19;7.25;;;3.45;;
77520;SDS011;66633;47.628;19.158;2023-02-26T09:00:44;7.50;;;3.78;;
77520;SDS011;66633;47.628;19.158;2023-02-26T09:03:10;7.38;;;2.83;;
77520;SDS011;66633;47.628;19.158;2023-02-26T09:05:35;16.98;;;7.55;;
77520;SDS011;66633;47.628;19.158;2023-02-26T09:08:01;10.70;;;4.93;;
77520;SDS011;66633;47.628;19.158;2023-02-26T09:10:26;12.68;;;5.63;;
77520;SDS011;66633;47.628;19.158;2023-02-26T09:12:52;9.88;;;4.53;;
77520;SDS011;66633;47.628;19.158;2023-02-26T09:15:17;8.52;;;3.92;;
77520;SDS011;66633;47.628;19.158;2023-02-26T09:17:42;7.53;;;3.00;;
77520;SDS011;66633;47.628;19.158;2023-02-26T09:20:09;6.03;;;2.75;;
77520;SDS011;66633;47.628;19.158;2023-02-26T09:22:35;7.30;;;3.28;;
77520;SDS011;66633;47.628;19.158;2023-02-26T09:25:00;12.00;;;5.50;;
77520;SDS011;66633;47.628;19.158;2023-02-26T09:27:26;7.22;;;3.50;;
77520;SDS011;66633;47.628;19.158;2023-02-26T09:29:51;12.03;;;5.50;;
77520;SDS011;66633;47.628;19.158;2023-02-26T09:32:16;13.40;;;5.87;;
77520;SDS011;66633;47.628;19.158;2023-02-26T09:34:41;20.47;;;9.07;;
77520;SDS011;66633;47.628;19.158;2023-02-26T09:37:07;14.17;;;6.47;;
77520;SDS011;66633;47.628;19.158;2023-02-26T09:39:33;25.02;;;10.38;;
77520;SDS011;66633;47.628;19.158;2023-02-26T09:41:59;10.52;;;4.50;;
77520;SDS011;66633;47.628;19.158;2023-02-26T09:45:02;13.77;;;5.93;;
77520;SDS011;66633;47.628;19.158;2023-02-26T09:47:29;10.82;;;5.40;;
77520;SDS011;66633;47.628;19.158;2023-02-26T09:49:58;10.13;;;4.60;;
77520;SDS011;66633;47.628;19.158;2023-02-26T09:54:52;9.83;;;4.43;;
77520;SDS011;66633;47.628;19.158;2023-02-26T09:57:37;15.70;;;6.13;;
77520;SDS011;66633;47.628;19.158;2023-02-26T10:02:59;11.70;;;5.72;;
77520;SDS011;66633;47.628;19.158;2023-02-26T10:08:03;7.07;;;3.60;;
77520;SDS011;66633;47.628;19.158;2023-02-26T10:15:51;7.60;;;3.95;;
77520;SDS011;66633;47.628;19.158;2023-02-26T10:25:40;5.88;;;2.60;;
77520;SDS011;66633;47.628;19.158;2023-02-26T10:35:52;12.40;;;5.35;;
77520;SDS011;66633;47.628;19.158;2023-02-26T10:38:24;36.00;;;15.45;;
77520;SDS011;66633;47.628;19.158;2023-02-26T10:41:01;8.95;;;3.38;;
77520;SDS011;66633;47.628;19.158;2023-02-26T10:49:13;15.43;;;7.90;;
77520;SDS011;66633;47.628;19.158;2023-02-26T10:51:20;13.05;;;7.72;;
77520;SDS011;66633;47.628;19.158;2023-02-26T10:53:51;9.52;;;5.13;;
77520;SDS011;66633;47.628;19.158;2023-02-26T10:56:32;7.20;;;3.65;;
77520;SDS011;66633;47.628;19.158;2023-02-26T10:58:58;6.13;;;2.72;;
77520;SDS011;66633;47.628;19.158;2023-02-26T11:01:24;6.25;;;2.80;;
77520;SDS011;66633;47.628;19.158;2023-02-26T11:03:53;6.88;;;3.10;;
77520;SDS011;66633;47.628;19.158;2023-02-26T11:06:27;6.97;;;3.25;;
77520;SDS011;66633;47.628;19.158;2023-02-26T11:08:54;6.97;;;3.10;;
77520;SDS011;66633;47.628;19.158;2023-02-26T11:11:36;7.03;;;3.13;;
77520;SDS011;66633;47.628;19.158;2023-02-26T11:14:04;7.15;;;3.05;;
77520;SDS011;66633;47.628;19.158;2023-02-26T11:16:29;7.40;;;3.38;;
77520;SDS011;66633;47.628;19.158;2023-02-26T11:18:54;6.82;;;3.40;;
77520;SDS011;66633;47.628;19.158;2023-02-26T11:21:27;14.02;;;7.47;;
77520;SDS011;66633;47.628;19.158;2023-02-26T11:24:00;10.02;;;4.50;;
77520;SDS011;66633;47.628;19.158;2023-02-26T11:26:36;6.57;;;3.40;;
77520;SDS011;66633;47.628;19.158;2023-02-26T11:29:02;6.82;;;3.35;;
77520;SDS011;66633;47.628;19.158;2023-02-26T11:31:27;7.00;;;3.45;;
77520;SDS011;66633;47.628;19.158;2023-02-26T11:33:57;7.15;;;3.55;;
77520;SDS011;66633;47.628;19.158;2023-02-26T11:36:25;17.75;;;7.47;;
77520;SDS011;66633;47.628;19.158;2023-02-26T11:38:56;9.43;;;3.67;;
77520;SDS011;66633;47.628;19.158;2023-02-26T11:41:22;28.00;;;11.50;;
77520;SDS011;66633;47.628;19.158;2023-02-26T11:43:48;22.60;;;9.93;;
77520;SDS011;66633;47.628;19.158;2023-02-26T11:46:21;41.20;;;16.27;;
77520;SDS011;66633;47.628;19.158;2023-02-26T11:48:48;45.35;;;17.48;;
77520;SDS011;66633;47.628;19.158;2023-02-26T11:51:15;17.83;;;10.52;;
77520;SDS011;66633;47.628;19.158;2023-02-26T11:53:47;14.73;;;7.38;;
77520;SDS011;66633;47.628;19.158;2023-02-26T11:58:39;11.73;;;6.35;;
77520;SDS011;66633;47.628;19.158;2023-02-26T12:01:06;15.38;;;8.77;;
77520;SDS011;66633;47.628;19.158;2023-02-26T12:03:32;9.70;;;5.63;;
77520;SDS011;66633;47.628;19.158;2023-02-26T12:05:58;7.38;;;3.80;;
77520;SDS011;66633;47.628;19.158;2023-02-26T12:08:32;22.10;;;9.15;;
77520;SDS011;66633;47.628;19.158;2023-02-26T12:21:16;9.38;;;4.10;;
77520;SDS011;66633;47.628;19.158;2023-02-26T12:38:51;8.13;;;4.10;;
77520;SDS011;66633;47.628;19.158;2023-02-26T12:43:54;10.30;;;5.15;;
77520;SDS011;66633;47.628;19.158;2023-02-26T12:49:05;7.53;;;4.10;;
77520;SDS011;66633;47.628;19.158;2023-02-26T12:54:09;4.90;;;2.20;;
77520;SDS011;66633;47.628;19.158;2023-02-26T12:56:48;5.22;;;2.20;;
77520;SDS011;66633;47.628;19.158;2023-02-26T13:04:15;7.32;;;3.20;;
77520;SDS011;66633;47.628;19.158;2023-02-26T13:09:19;6.03;;;2.28;;
77520;SDS011;66633;47.628;19.158;2023-02-26T13:11:55;7.22;;;2.90;;
77520;SDS011;66633;47.628;19.158;2023-02-26T13:14:27;7.30;;;3.15;;
77520;SDS011;66633;47.628;19.158;2023-02-26T13:16:59;6.07;;;2.70;;
77520;SDS011;66633;47.628;19.158;2023-02-26T13:19:30;8.40;;;3.80;;
77520;SDS011;66633;47.628;19.158;2023-02-26T13:21:59;6.03;;;2.45;;
77520;SDS011;66633;47.628;19.158;2023-02-26T13:26:53;9.30;;;4.40;;
77520;SDS011;66633;47.628;19.158;2023-02-26T13:29:28;8.88;;;3.58;;
77520;SDS011;66633;47.628;19.158;2023-02-26T13:32:16;6.60;;;2.92;;
77520;SDS011;66633;47.628;19.158;2023-02-26T13:42:53;7.78;;;3.35;;
77520;SDS011;66633;47.628;19.158;2023-02-26T13:58:39;6.93;;;2.95;;
77520;SDS011;66633;47.628;19.158;2023-02-26T14:01:07;7.55;;;3.03;;
77520;SDS011;66633;47.628;19.158;2023-02-26T14:03:48;6.78;;;2.70;;
77520;SDS011;66633;47.628;19.158;2023-02-26T14:06:22;7.75;;;3.08;;
77520;SDS011;66633;47.628;19.158;2023-02-26T14:09:01;7.65;;;3.20;;
77520;SDS011;66633;47.628;19.158;2023-02-26T14:19:37;8.57;;;4.20;;
77520;SDS011;66633;47.628;19.158;2023-02-26T14:32:29;9.98;;;3.53;;
77520;SDS011;66633;47.628;19.158;2023-02-26T14:34:57;7.40;;;2.92;;
77520;SDS011;66633;47.628;19.158;2023-02-26T14:37:24;10.98;;;4.05;;
77520;SDS011;66633;47.628;19.158;2023-02-26T14:39:55;7.22;;;3.38;;
77520;SDS011;66633;47.628;19.158;2023-02-26T14:42:23;6.50;;;2.72;;
77520;SDS011;66633;47.628;19.158;2023-02-26T14:44:50;6.22;;;2.80;;
77520;SDS011;66633;47.628;19.158;2023-02-26T14:47:17;7.35;;;3.25;;
77520;SDS011;66633;47.628;19.158;2023-02-26T14:49:44;6.80;;;2.97;;
77520;SDS011;66633;47.628;19.158;2023-02-26T15:00:09;7.38;;;2.90;;
77520;SDS011;66633;47.628;19.158;2023-02-26T15:02:50;7.20;;;2.83;;
77520;SDS011;66633;47.628;19.158;2023-02-26T15:05:26;5.97;;;2.58;;
77520;SDS011;66633;47.628;19.158;2023-02-26T15:15:47;13.20;;;5.20;;
77520;SDS011;66633;47.628;19.158;2023-02-26T15:18:21;13.23;;;5.10;;
77520;SDS011;66633;47.628;19.158;2023-02-26T15:21:03;7.93;;;3.75;;
77520;SDS011;66633;47.628;19.158;2023-02-26T15:23:46;12.07;;;4.80;;
77520;SDS011;66633;47.628;19.158;2023-02-26T15:26:22;7.95;;;3.13;;
77520;SDS011;66633;47.628;19.158;2023-02-26T15:28:49;122.93;;;51.42;;
77520;SDS011;66633;47.628;19.158;2023-02-26T15:31:15;55.67;;;24.70;;
77520;SDS011;66633;47.628;19.158;2023-02-26T15:33:42;24.88;;;11.20;;
77520;SDS011;66633;47.628;19.158;2023-02-26T15:36:13;34.97;;;16.80;;
77520;SDS011;66633;47.628;19.158;2023-02-26T15:38:46;23.80;;;12.05;;
77520;SDS011;66633;47.628;19.158;2023-02-26T15:41:11;11.82;;;5.35;;
77520;SDS011;66633;47.628;19.158;2023-02-26T15:43:45;11.15;;;5.15;;
77520;SDS011;66633;47.628;19.158;2023-02-26T15:46:13;12.00;;;5.20;;
77520;SDS011;66633;47.628;19.158;2023-02-26T15:48:39;21.10;;;9.70;;
77520;SDS011;66633;47.628;19.158;2023-02-26T15:51:27;29.27;;;12.07;;
77520;SDS011;66633;47.628;19.158;2023-02-26T15:53:54;17.00;;;7.30;;
77520;SDS011;66633;47.628;19.158;2023-02-26T15:56:23;9.55;;;4.72;;
77520;SDS011;66633;47.628;19.158;2023-02-26T15:59:03;9.15;;;3.95;;
77520;SDS011;66633;47.628;19.158;2023-02-26T16:01:33;8.65;;;4.05;;
77520;SDS011;66633;47.628;19.158;2023-02-26T16:04:02;7.88;;;3.45;;
77520;SDS011;66633;47.628;19.158;2023-02-26T16:06:40;14.10;;;7.15;;
77520;SDS011;66633;47.628;19.158;2023-02-26T16:09:07;16.25;;;6.18;;
77520;SDS011;66633;47.628;19.158;2023-02-26T16:11:37;10.50;;;5.20;;
77520;SDS011;66633;47.628;19.158;2023-02-26T16:16:50;19.70;;;8.98;;
77520;SDS011;66633;47.628;19.158;2023-02-26T16:19:19;13.25;;;6.63;;
77520;SDS011;66633;47.628;19.158;2023-02-26T16:21:45;8.85;;;4.18;;
77520;SDS011;66633;47.628;19.158;2023-02-26T16:24:13;7.28;;;3.35;;
77520;SDS011;66633;47.628;19.158;2023-02-26T16:26:48;7.18;;;3.42;;
77520;SDS011;66633;47.628;19.158;2023-02-26T16:29:23;9.60;;;4.72;;
77520;SDS011;66633;47.628;19.158;2023-02-26T16:31:53;9.32;;;4.75;;
77520;SDS011;66633;47.628;19.158;2023-02-26T16:36:45;7.10;;;3.20;;
77520;SDS011;66633;47.628;19.158;2023-02-26T16:39:19;22.55;;;7.07;;
77520;SDS011;66633;47.628;19.158;2023-02-26T16:41:53;37.60;;;11.75;;
77520;SDS011;66633;47.628;19.158;2023-02-26T16:46:57;42.95;;;12.10;;
77520;SDS011;66633;47.628;19.158;2023-02-26T16:51:49;111.72;;;30.67;;
77520;SDS011;66633;47.628;19.158;2023-02-26T16:54:27;128.88;;;44.33;;
77520;SDS011;66633;47.628;19.158;2023-02-26T16:56:58;34.60;;;15.63;;
77520;SDS011;66633;47.628;19.158;2023-02-26T16:59:27;30.70;;;13.68;;
77520;SDS011;66633;47.628;19.158;2023-02-26T17:01:56;19.48;;;8.43;;
77520;SDS011;66633;47.628;19.158;2023-02-26T17:04:58;15.38;;;6.88;;
77520;SDS011;66633;47.628;19.158;2023-02-26T17:09:46;35.10;;;17.33;;
77520;SDS011;66633;47.628;19.158;2023-02-26T17:14:54;19.30;;;10.18;;
77520;SDS011;66633;47.628;19.158;2023-02-26T17:17:20;17.55;;;8.25;;
77520;SDS011;66633;47.628;19.158;2023-02-26T17:19:46;9.77;;;4.25;;
77520;SDS011;66633;47.628;19.158;2023-02-26T17:22:12;11.65;;;5.53;;
77520;SDS011;66633;47.628;19.158;2023-02-26T17:24:39;12.32;;;5.70;;
77520;SDS011;66633;47.628;19.158;2023-02-26T17:27:12;12.13;;;6.30;;
77520;SDS011;66633;47.628;19.158;2023-02-26T17:29:39;15.27;;;7.20;;
77520;SDS011;66633;47.628;19.158;2023-02-26T17:32:16;13.45;;;6.78;;
77520;SDS011;66633;47.628;19.158;2023-02-26T17:34:43;12.88;;;5.78;;
77520;SDS011;66633;47.628;19.158;2023-02-26T17:37:11;9.57;;;4.95;;
77520;SDS011;66633;47.628;19.158;2023-02-26T17:39:37;10.80;;;5.15;;
77520;SDS011;66633;47.628;19.158;2023-02-26T17:42:02;10.43;;;4.93;;
77520;SDS011;66633;47.628;19.158;2023-02-26T17:44:28;11.07;;;5.72;;
77520;SDS011;66633;47.628;19.158;2023-02-26T17:46:53;15.07;;;9.52;;
77520;SDS011;66633;47.628;19.158;2023-02-26T17:49:19;25.77;;;12.57;;
77520;SDS011;66633;47.628;19.158;2023-02-26T17:51:45;15.32;;;7.43;;
77520;SDS011;66633;47.628;19.158;2023-02-26T17:54:10;27.30;;;10.95;;
77520;SDS011;66633;47.628;19.158;2023-02-26T17:56:36;22.35;;;9.98;;
77520;SDS011;66633;47.628;19.158;2023-02-26T17:59:02;18.27;;;6.82;;
77520;SDS011;66633;47.628;19.158;2023-02-26T18:01:28;31.10;;;12.60;;
77520;SDS011;66633;47.628;19.158;2023-02-26T18:03:54;35.45;;;14.52;;
77520;SDS011;66633;47.628;19.158;2023-02-26T18:06:20;33.85;;;14.90;;
77520;SDS011;66633;47.628;19.158;2023-02-26T18:08:47;45.72;;;19.92;;
77520;SDS011;66633;47.628;19.158;2023-02-26T18:11:13;22.92;;;10.63;;
77520;SDS011;66633;47.628;19.158;2023-02-26T18:13:39;32.97;;;14.75;;
77520;SDS011;66633;47.628;19.158;2023-02-26T18:16:05;31.00;;;13.07;;